Time;durP1;ratioP1;P1;durP2;ratioP2;P2;SDS_P1;SDS_P2;PMS_P1;PMS_P2;Temp;Humidity;BMP_temperature;BMP_pressure;BME280_temperature;BME280_humidity;BME280_pressure;Samples;Min_cycle;Max_cycle;Signal;HPM_P1;HPM_P2
2021/03/27 00:01:58;;;;;;;69.72;42.45;;;;;;;6.68;88.27;100594.66;4971955;28;20633;-54
2021/03/27 00:04:47;;;;;;;68.90;42.28;;;;;;;6.56;89.27;100595.06;4971985;28;20588;-53
2021/03/27 00:07:34;;;;;;;69.05;40.72;;;;;;;6.91;87.45;100595.56;4971288;28;20047;-50
2021/03/27 00:10:19;;;;;;;70.45;41.53;;;;;;;6.54;88.52;100593.25;4974652;28;20051;-51
2021/03/27 00:13:10;;;;;;;62.80;39.67;;;;;;;6.32;90.04;100589.81;4961084;28;20575;-52
2021/03/27 00:15:52;;;;;;;67.22;41.38;;;;;;;6.80;87.93;100584.13;4973975;28;20096;-52
2021/03/27 00:18:32;;;;;;;66.05;40.42;;;;;;;6.17;91.05;100584.13;4976171;28;20066;-52
2021/03/27 00:21:09;;;;;;;73.88;43.42;;;;;;;6.10;91.64;100579.56;4971588;28;20054;-55
2021/03/27 00:23:52;;;;;;;68.95;41.97;;;;;;;6.09;91.63;100572.75;4974387;28;20059;-51
2021/03/27 00:26:42;;;;;;;73.55;42.42;;;;;;;6.15;91.33;100575.56;4975619;28;20054;-54
2021/03/27 00:29:25;;;;;;;69.35;42.53;;;;;;;6.25;91.12;100566.66;4975304;28;20284;-51
2021/03/27 00:31:54;;;;;;;66.20;40.83;;;;;;;6.14;91.46;100563.66;4977036;28;20149;-51
2021/03/27 00:34:26;;;;;;;65.68;41.03;;;;;;;6.03;91.95;100565.75;4972230;28;20145;-54
2021/03/27 00:36:57;;;;;;;72.70;43.05;;;;;;;6.03;91.55;100555.59;4971662;28;20417;-54
2021/03/27 00:39:50;;;;;;;71.40;42.25;;;;;;;6.09;91.89;100552.41;4972333;28;20057;-54
2021/03/27 00:42:26;;;;;;;70.20;41.08;;;;;;;6.08;90.97;100550.69;4974688;28;20050;-57
2021/03/27 00:45:21;;;;;;;67.50;41.63;;;;;;;5.83;92.70;100548.78;4971793;28;20042;-54
2021/03/27 00:47:53;;;;;;;69.22;42.83;;;;;;;5.74;93.09;100535.69;4974793;28;20050;-51
2021/03/27 00:50:32;;;;;;;75.03;43.38;;;;;;;5.78;93.01;100537.56;4972171;28;20470;-52
2021/03/27 00:53:12;;;;;;;69.80;42.60;;;;;;;5.77;93.33;100536.66;4970951;28;20043;-47
2021/03/27 00:55:49;;;;;;;65.28;40.75;;;;;;;6.13;91.38;100533.94;4973131;28;20046;-51
2021/03/27 00:58:41;;;;;;;69.22;40.55;;;;;;;5.91;92.47;100533.84;4975180;28;20444;-55
2021/03/27 01:01:10;;;;;;;65.53;38.80;;;;;;;6.10;91.34;100529.63;4957977;28;20054;-52
2021/03/27 01:03:41;;;;;;;72.07;42.03;;;;;;;5.83;92.43;100531.84;4973533;28;20042;-53
2021/03/27 01:06:16;;;;;;;66.03;40.92;;;;;;;5.93;92.66;100520.44;4970484;28;20055;-52
2021/03/27 01:08:47;;;;;;;70.07;41.55;;;;;;;5.69;93.42;100516.84;4975835;28;20061;-51
2021/03/27 01:11:28;;;;;;;65.75;38.88;;;;;;;5.94;92.48;100523.84;4974599;28;20043;-53
2021/03/27 01:13:59;;;;;;;62.55;40.80;;;;;;;5.83;92.71;100521.69;4975238;28;20046;-53
2021/03/27 01:16:30;;;;;;;67.55;41.28;;;;;;;5.78;93.09;100515.56;4971519;28;20042;-54
2021/03/27 01:19:02;;;;;;;67.68;41.63;;;;;;;5.93;93.02;100507.72;4969546;28;20058;-52
2021/03/27 01:21:34;;;;;;;64.60;40.05;;;;;;;5.96;92.40;100507.88;4972183;28;20046;-54
2021/03/27 01:24:04;;;;;;;68.55;43.13;;;;;;;5.86;92.37;100505.69;4970002;28;20054;-53
2021/03/27 01:26:40;;;;;;;63.00;38.65;;;;;;;6.19;90.94;100502.81;4972016;28;20559;-54
2021/03/27 01:29:08;;;;;;;;;;;;;;;5.85;92.24;100493.78;4974964;28;20058;-55
2021/03/27 01:31:58;;;;;;;69.35;40.22;;;;;;;5.65;93.24;100498.06;4972440;28;19944;-53
2021/03/27 01:34:34;;;;;;;68.90;40.20;;;;;;;5.80;92.58;100496.16;4974742;28;20406;-55
2021/03/27 01:37:26;;;;;;;73.63;42.30;;;;;;;5.67;92.65;100493.03;4975253;28;20054;-61
2021/03/27 01:40:26;;;;;;;70.50;40.30;;;;;;;5.44;94.39;100485.28;4968690;28;20046;-51
2021/03/27 01:43:14;;;;;;;68.18;40.20;;;;;;;5.93;93.12;100481.44;4976763;28;20046;-55
2021/03/27 01:46:12;;;;;;;69.57;40.85;;;;;;;5.98;91.66;100477.41;4972364;28;20050;-52
2021/03/27 01:48:51;;;;;;;66.68;38.83;;;;;;;6.00;92.09;100481.75;4975510;28;20129;-50
2021/03/27 01:51:40;;;;;;;68.97;39.17;;;;;;;5.94;91.46;100473.00;4974622;28;20047;-56
2021/03/27 01:54:16;;;;;;;61.08;36.92;;;;;;;6.12;90.78;100473.75;4973506;28;20047;-52
2021/03/27 01:57:08;;;;;;;61.60;37.72;;;;;;;6.28;90.22;100470.13;4977890;28;20484;-50
2021/03/27 01:59:52;;;;;;;65.65;37.50;;;;;;;5.90;91.18;100460.94;4976439;28;20448;-48
2021/03/27 02:02:32;;;;;;;61.40;36.25;;;;;;;6.30;90.06;100455.81;4971210;28;20497;-55
2021/03/27 02:05:25;;;;;;;62.03;38.53;;;;;;;5.69;91.55;100444.03;4969986;28;20057;-51
2021/03/27 02:08:18;;;;;;;67.57;39.90;;;;;;;5.65;92.44;100438.78;4975617;28;20042;-53
2021/03/27 02:11:00;;;;;;;64.13;36.85;;;;;;;5.65;92.94;100444.72;4977019;28;20042;-53
2021/03/27 02:13:35;;;;;;;62.40;36.90;;;;;;;5.83;92.31;100440.38;4973755;28;20074;-51
2021/03/27 02:16:32;;;;;;;58.67;35.63;;;;;;;6.08;91.91;100442.25;4973483;28;20054;-52
2021/03/27 02:19:17;;;;;;;60.53;38.35;;;;;;;6.28;89.99;100434.53;4975016;28;20069;-50
2021/03/27 02:21:50;;;;;;;59.55;36.33;;;;;;;6.28;89.72;100440.47;4975193;28;20452;-53
2021/03/27 02:24:31;;;;;;;62.63;37.33;;;;;;;6.04;90.10;100434.44;4973916;28;20568;-51
2021/03/27 02:27:12;;;;;;;60.00;37.63;;;;;;;5.97;91.35;100435.03;4970087;28;20043;-52
2021/03/27 02:30:05;;;;;;;60.42;35.47;;;;;;;6.07;89.83;100426.97;4973069;28;20056;-55
2021/03/27 02:32:51;;;;;;;62.08;35.30;;;;;;;6.37;88.60;100427.25;4978153;28;20035;-49
2021/03/27 02:35:23;;;;;;;60.60;38.73;;;;;;;5.96;90.16;100420.56;4977567;28;20054;-54
2021/03/27 02:38:11;;;;;;;54.75;33.97;;;;;;;6.27;88.59;100423.50;4974893;28;20061;-50
2021/03/27 02:40:45;;;;;;;56.78;35.45;;;;;;;5.93;90.40;100428.09;4976105;28;20144;-54
2021/03/27 02:43:34;;;;;;;58.67;35.78;;;;;;;5.94;90.32;100428.13;4973487;28;20057;-53
2021/03/27 02:46:28;;;;;;;58.33;34.88;;;;;;;6.25;89.00;100427.66;4968824;28;20051;-54
2021/03/27 02:48:59;;;;;;;58.97;35.85;;;;;;;6.00;90.21;100432.59;4978211;28;20050;-51
2021/03/27 02:51:33;;;;;;;59.47;34.03;;;;;;;6.28;88.75;100426.91;4974402;28;20421;-51
2021/03/27 02:54:22;;;;;;;52.75;32.20;;;;;;;6.34;87.84;100427.16;4973224;28;20775;-53
2021/03/27 02:57:03;;;;;;;52.03;33.85;;;;;;;5.79;90.96;100419.88;4980013;28;20053;-50
2021/03/27 02:59:56;;;;;;;49.67;33.33;;;;;;;6.44;88.34;100416.53;4974676;28;20053;-55
2021/03/27 03:02:43;;;;;;;54.80;33.83;;;;;;;6.40;88.09;100408.72;4978401;28;20509;-53
2021/03/27 03:05:24;;;;;;;50.50;32.30;;;;;;;6.72;86.89;100415.00;4976821;28;20053;-54
2021/03/27 03:08:03;;;;;;;54.45;32.15;;;;;;;6.69;86.42;100409.78;4978561;28;20057;-53
2021/03/27 03:10:53;;;;;;;53.20;33.10;;;;;;;6.72;86.23;100410.78;4974866;28;20169;-54
2021/03/27 03:13:36;;;;;;;57.53;32.97;;;;;;;6.81;86.24;100410.25;4973652;28;20051;-53
2021/03/27 03:16:20;;;;;;;51.55;31.75;;;;;;;6.86;85.39;100407.06;4976337;28;20050;-53
2021/03/27 03:19:21;;;;;;;47.20;30.25;;;;;;;6.94;84.64;100414.13;4978131;28;20050;-54
2021/03/27 03:21:58;;;;;;;49.97;31.23;;;;;;;6.93;84.88;100407.25;4974900;28;20088;-53
2021/03/27 03:25:06;;;;;;;43.40;28.02;;;;;;;6.86;85.20;100401.97;4967879;28;20062;-51
2021/03/27 03:27:40;;;;;;;47.28;28.65;;;;;;;7.12;83.52;100414.75;4974061;28;20053;-55
2021/03/27 03:30:28;;;;;;;43.22;27.55;;;;;;;7.06;84.13;100409.44;4976880;28;20061;-50
2021/03/27 03:33:01;;;;;;;44.58;28.55;;;;;;;7.13;84.16;100404.63;4977420;28;20519;-55
2021/03/27 03:35:53;;;;;;;44.28;28.80;;;;;;;7.21;83.06;100409.09;4973477;28;20046;-53
2021/03/27 03:38:31;;;;;;;43.40;27.80;;;;;;;7.33;82.69;100409.53;4977121;28;20051;-56
2021/03/27 03:41:12;;;;;;;43.15;28.52;;;;;;;7.27;82.26;100396.59;4972312;28;20042;-52
2021/03/27 03:44:01;;;;;;;43.50;27.90;;;;;;;7.30;82.47;100396.69;4974749;28;20050;-52
2021/03/27 03:47:00;;;;;;;48.40;28.27;;;;;;;7.42;82.13;100396.25;4975535;28;20043;-47
2021/03/27 03:49:39;;;;;;;44.22;27.60;;;;;;;7.24;83.07;100397.34;4968332;28;20051;-54
2021/03/27 03:52:17;;;;;;;50.72;30.40;;;;;;;7.17;83.05;100392.88;4977071;28;20057;-55
2021/03/27 03:55:06;;;;;;;44.08;28.17;;;;;;;7.35;82.60;100393.50;4977469;28;20684;-53
2021/03/27 03:58:10;;;;;;;47.40;29.75;;;;;;;7.27;82.40;100389.81;4976764;28;20046;-54
2021/03/27 04:00:47;;;;;;;45.70;28.73;;;;;;;7.34;82.29;100394.28;4979236;28;20057;-50
2021/03/27 04:03:33;;;;;;;48.72;29.98;;;;;;;7.30;82.36;100394.13;4976129;28;20057;-52
2021/03/27 04:06:02;;;;;;;48.17;30.48;;;;;;;7.32;82.40;100387.44;4976855;28;20054;-49
2021/03/27 04:08:50;;;;;;;45.42;29.88;;;;;;;7.26;82.52;100388.09;4973651;28;20057;-53
2021/03/27 04:12:11;;;;;;;50.03;28.50;;;;;;;7.27;82.14;100388.97;4975711;28;20050;-50
2021/03/27 04:15:08;;;;;;;51.28;30.17;;;;;;;7.38;82.37;100382.53;4906047;29;20195;-54
2021/03/27 04:17:40;;;;;;;44.58;28.90;;;;;;;7.00;83.00;100383.78;4977495;28;20042;-54
2021/03/27 04:20:50;;;;;;;46.20;29.35;;;;;;;7.28;82.64;100377.94;4970409;28;20046;-52
2021/03/27 04:23:25;;;;;;;47.10;29.42;;;;;;;7.15;82.94;100377.53;4975663;28;20058;-53
2021/03/27 04:26:19;;;;;;;44.30;28.17;;;;;;;7.12;83.26;100376.56;4972902;28;20424;-52
2021/03/27 04:29:15;;;;;;;42.28;28.00;;;;;;;7.22;83.45;100376.06;4978909;28;20042;-49
2021/03/27 04:32:12;;;;;;;44.80;29.00;;;;;;;7.30;82.96;100373.75;4977249;28;20065;-53
2021/03/27 04:34:48;;;;;;;45.67;28.40;;;;;;;7.42;82.01;100369.09;4975424;28;20057;-52
2021/03/27 04:37:25;;;;;;;43.28;28.85;;;;;;;7.33;82.50;100371.31;4975908;28;20081;-55
2021/03/27 04:40:11;;;;;;;50.03;29.30;;;;;;;7.41;82.51;100377.56;4976791;28;20053;-51
2021/03/27 04:42:46;;;;;;;48.35;28.92;;;;;;;7.17;83.37;100372.50;4973906;28;20038;-54
2021/03/27 04:45:13;;;;;;;49.30;28.77;;;;;;;7.44;81.94;100379.31;4974980;28;20101;-54
2021/03/27 04:47:46;;;;;;;47.20;29.13;;;;;;;7.51;81.72;100389.78;4973854;28;20132;-54
2021/03/27 04:50:28;;;;;;;45.08;29.00;;;;;;;7.34;82.40;100390.88;4975132;28;20046;-54
2021/03/27 04:53:07;;;;;;;44.10;28.25;;;;;;;7.20;83.20;100387.88;4976434;28;20574;-53
2021/03/27 04:55:42;;;;;;;46.10;28.45;;;;;;;6.98;84.10;100372.66;4973087;28;20057;-52
2021/03/27 04:58:25;;;;;;;46.47;28.90;;;;;;;7.02;83.53;100369.41;4975512;28;20061;-52
2021/03/27 05:01:18;;;;;;;45.95;28.83;;;;;;;7.22;82.34;100372.66;4976593;28;20054;-48
2021/03/27 05:04:05;;;;;;;46.35;27.98;;;;;;;6.99;83.67;100370.19;4976099;28;20085;-53
2021/03/27 05:06:40;;;;;;;41.05;27.33;;;;;;;6.92;84.15;100380.94;4975253;28;20047;-53
2021/03/27 05:09:36;;;;;;;45.78;27.77;;;;;;;7.01;83.69;100373.63;4958511;28;20051;-53
2021/03/27 05:12:21;;;;;;;47.28;28.45;;;;;;;7.23;82.90;100382.03;4974652;28;20062;-55
2021/03/27 05:15:08;;;;;;;43.10;27.48;;;;;;;7.09;83.24;100379.88;4975756;28;20057;-55
2021/03/27 05:17:44;;;;;;;47.83;28.67;;;;;;;6.85;84.13;100377.34;4973040;28;20054;-50
2021/03/27 05:20:43;;;;;;;50.65;29.92;;;;;;;6.79;84.60;100381.31;4974634;28;20130;-55
2021/03/27 05:23:41;;;;;;;42.75;27.65;;;;;;;6.96;83.83;100372.63;4970843;28;20401;-55
2021/03/27 05:26:18;;;;;;;42.38;27.30;;;;;;;6.99;83.56;100370.19;4899388;28;20058;-52
2021/03/27 05:28:58;;;;;;;42.63;27.98;;;;;;;7.07;84.07;100371.31;4976263;28;20054;-53
2021/03/27 05:31:31;;;;;;;46.03;28.23;;;;;;;7.23;83.08;100372.69;4974129;28;20038;-52
2021/03/27 05:34:16;;;;;;;43.60;27.27;;;;;;;7.29;82.49;100378.00;4970861;28;20062;-55
2021/03/27 05:37:24;;;;;;;42.22;26.45;;;;;;;7.45;81.85;100375.97;4975503;28;20123;-55
2021/03/27 05:40:41;;;;;;;42.25;26.98;;;;;;;7.56;82.27;100367.00;4977369;28;20053;-55
2021/03/27 05:43:28;;;;;;;46.67;25.27;;;;;;;7.83;79.91;100370.41;4980336;28;20050;-52
2021/03/27 05:46:16;;;;;;;42.80;27.55;;;;;;;7.60;81.46;100371.38;4983613;28;20508;-55
2021/03/27 05:48:48;;;;;;;39.50;26.48;;;;;;;7.70;81.60;100359.78;4982955;28;20057;-51
2021/03/27 05:51:50;;;;;;;41.60;26.13;;;;;;;7.83;81.33;100361.91;4982275;28;20053;-53
2021/03/27 05:55:02;;;;;;;44.75;26.17;;;;;;;8.20;80.40;100369.00;4980514;28;20441;-53
2021/03/27 05:57:41;;;;;;;38.92;25.42;;;;;;;8.00;80.93;100365.00;4982621;28;20424;-54
2021/03/27 06:00:31;;;;;;;38.58;25.67;;;;;;;8.45;79.59;100368.06;4984065;28;20058;-56
2021/03/27 06:03:04;;;;;;;37.08;24.67;;;;;;;8.79;77.69;100362.22;4980860;28;20840;-51
2021/03/27 06:06:08;;;;;;;38.10;23.00;;;;;;;9.12;75.97;100367.38;4978704;28;20148;-52
2021/03/27 06:08:51;;;;;;;30.00;20.88;;;;;;;9.18;73.58;100367.53;4987714;28;20601;-55
2021/03/27 06:11:29;;;;;;;32.97;22.13;;;;;;;9.17;75.29;100370.06;4983084;28;20413;-49
2021/03/27 06:14:12;;;;;;;29.15;21.50;;;;;;;9.49;73.07;100370.00;4986624;28;20061;-55
2021/03/27 06:17:10;;;;;;;34.35;23.02;;;;;;;9.12;76.52;100366.50;4985938;28;20038;-53
2021/03/27 06:20:15;;;;;;;41.15;25.33;;;;;;;9.01;77.78;100361.09;4987288;28;20054;-54
2021/03/27 06:23:10;;;;;;;35.83;23.67;;;;;;;9.18;76.51;100364.09;4986143;28;20130;-54
2021/03/27 06:25:52;;;;;;;36.00;24.30;;;;;;;9.21;75.34;100366.75;4986835;28;20046;-53
2021/03/27 06:28:38;;;;;;;35.88;23.35;;;;;;;9.21;75.73;100365.88;4974978;28;20424;-51
2021/03/27 06:31:15;;;;;;;37.75;24.33;;;;;;;9.20;76.15;100365.03;4977993;28;20109;-52
2021/03/27 06:34:05;;;;;;;38.67;24.10;;;;;;;9.37;74.94;100366.31;4977873;28;20046;-55
2021/03/27 06:36:50;;;;;;;36.90;23.33;;;;;;;9.79;73.65;100357.94;4979190;28;20035;-55
2021/03/27 06:39:36;;;;;;;34.80;23.00;;;;;;;10.98;69.47;100361.34;4976115;28;20472;-56
2021/03/27 06:42:42;;;;;;;31.05;21.77;;;;;;;11.83;65.69;100367.06;4977495;28;20054;-54
2021/03/27 06:45:19;;;;;;;30.05;20.60;;;;;;;11.80;64.58;100370.44;4977263;28;20042;-53
2021/03/27 06:48:24;;;;;;;30.10;21.15;;;;;;;13.41;59.22;100375.06;4978620;28;20576;-53
2021/03/27 06:51:10;;;;;;;30.80;19.98;;;;;;;14.01;57.68;100377.22;4974620;28;20101;-56
2021/03/27 06:53:49;;;;;;;29.83;19.85;;;;;;;15.01;53.50;100375.97;4975953;28;20050;-52
2021/03/27 06:56:36;;;;;;;30.23;18.50;;;;;;;14.58;54.40;100362.09;4973314;28;20061;-56
2021/03/27 06:59:41;;;;;;;23.58;15.75;;;;;;;14.60;55.33;100338.91;4982491;28;20050;-47
2021/03/27 07:02:26;;;;;;;23.55;16.80;;;;;;;13.38;58.79;100333.88;4962192;28;20574;-49
2021/03/27 07:05:27;;;;;;;26.65;18.17;;;;;;;13.03;59.69;100336.06;4983267;28;20042;-53
2021/03/27 07:08:10;;;;;;;25.13;17.70;;;;;;;12.29;61.92;100337.78;4985200;28;20567;-52
2021/03/27 07:11:01;;;;;;;23.35;17.52;;;;;;;11.92;62.87;100336.41;4985465;28;20187;-50
2021/03/27 07:14:00;;;;;;;27.98;16.95;;;;;;;12.13;63.48;100330.75;4985666;28;20476;-53
2021/03/27 07:16:33;;;;;;;24.80;17.05;;;;;;;12.58;61.10;100339.88;4984136;28;20039;-49
2021/03/27 07:19:17;;;;;;;21.45;16.75;;;;;;;12.34;62.58;100349.00;4985390;28;20078;-52
2021/03/27 07:22:05;;;;;;;26.63;16.02;;;;;;;12.12;62.64;100362.38;4980371;28;20050;-50
2021/03/27 07:25:07;;;;;;;21.13;15.05;;;;;;;11.86;63.81;100373.13;4977251;28;20043;-53
2021/03/27 07:27:52;;;;;;;24.23;14.90;;;;;;;11.95;62.50;100388.66;4973795;28;20408;-52
2021/03/27 07:30:33;;;;;;;19.88;14.15;;;;;;;12.02;62.74;100373.34;4975822;28;20548;-52
2021/03/27 07:33:29;;;;;;;19.50;13.73;;;;;;;11.93;63.06;100376.66;4971721;28;20386;-50
2021/03/27 07:36:37;;;;;;;20.70;14.13;;;;;;;12.03;62.58;100377.66;4976647;28;20129;-52
2021/03/27 07:39:28;;;;;;;21.35;13.57;;;;;;;11.82;63.85;100419.19;4976469;28;20042;-49
2021/03/27 07:42:23;;;;;;;21.30;13.80;;;;;;;11.79;64.95;100421.72;4978101;28;20141;-51
2021/03/27 07:45:28;;;;;;;37.90;24.65;;;;;;;11.76;66.13;100424.25;4977971;28;20049;-50
2021/03/27 07:48:07;;;;;;;21.08;14.52;;;;;;;11.57;69.29;100426.50;4985787;28;20068;-50
2021/03/27 07:51:09;;;;;;;18.52;14.68;;;;;;;11.07;73.96;100416.16;4992369;28;20755;-54
2021/03/27 07:53:59;;;;;;;22.80;14.82;;;;;;;10.87;74.72;100426.03;4954718;28;20049;-52
2021/03/27 07:56:56;;;;;;;21.83;13.43;;;;;;;10.64;76.84;100440.94;4990375;28;20420;-50
2021/03/27 07:59:28;;;;;;;19.67;13.70;;;;;;;10.35;80.35;100440.31;4991036;28;20046;-52
2021/03/27 08:01:57;;;;;;;24.92;15.25;;;;;;;10.19;83.09;100450.97;4986140;28;20038;-50
2021/03/27 08:04:48;;;;;;;20.45;14.80;;;;;;;10.20;83.61;100452.69;4987766;28;20046;-53
2021/03/27 08:07:51;;;;;;;26.05;16.98;;;;;;;9.97;87.10;100462.38;4983365;28;20042;-52
2021/03/27 08:10:23;;;;;;;24.00;15.20;;;;;;;9.87;85.67;100481.75;4980754;28;20204;-52
2021/03/27 08:12:58;;;;;;;18.00;13.85;;;;;;;9.89;83.99;100485.22;4973361;28;20070;-52
2021/03/27 08:15:49;;;;;;;24.95;15.73;;;;;;;9.84;84.78;100497.00;4973206;28;20046;-54
2021/03/27 08:18:52;;;;;;;20.83;15.25;;;;;;;9.84;82.77;100519.16;4975954;28;20101;-52
2021/03/27 08:21:36;;;;;;;22.10;15.43;;;;;;;9.88;81.83;100532.06;4976232;28;20049;-51
2021/03/27 08:24:25;;;;;;;19.67;14.82;;;;;;;9.70;83.76;100549.47;4975692;28;20061;-52
2021/03/27 08:27:22;;;;;;;20.95;13.55;;;;;;;9.55;84.13;100555.06;4977415;28;20053;-52
2021/03/27 08:30:26;;;;;;;16.25;10.45;;;;;;;9.35;86.58;100586.88;4978589;28;20050;-51
2021/03/27 08:33:29;;;;;;;10.25;7.22;;;;;;;8.64;88.04;100573.63;4978769;28;20050;-53
2021/03/27 08:36:04;;;;;;;8.95;5.43;;;;;;;8.55;86.87;100597.22;4977058;28;20053;-49
2021/03/27 08:39:07;;;;;;;5.50;4.13;;;;;;;8.33;85.93;100623.66;4977732;28;20424;-48
2021/03/27 08:41:57;;;;;;;4.75;2.65;;;;;;;8.31;85.82;100648.25;4982980;28;20057;-51
2021/03/27 08:45:14;;;;;;;2.80;2.03;;;;;;;8.17;86.88;100662.19;4984054;28;20057;-54
2021/03/27 08:48:14;;;;;;;12.48;10.25;;;;;;;7.97;86.51;100679.38;4948221;28;20054;-52
2021/03/27 08:50:59;;;;;;;7.28;2.75;;;;;;;7.60;87.42;100695.84;4979495;28;20038;-51
2021/03/27 08:53:34;;;;;;;16.92;5.40;;;;;;;7.54;88.75;100704.97;4982853;28;20049;-52
2021/03/27 08:56:23;;;;;;;20.42;6.82;;;;;;;7.46;88.86;100711.44;4984410;28;20564;-50
2021/03/27 08:59:11;;;;;;;4.50;1.83;;;;;;;7.01;91.00;100724.09;4984880;28;20613;-49
2021/03/27 09:02:11;;;;;;;1.08;0.82;;;;;;;6.98;90.85;100706.13;4979260;28;20046;-51
2021/03/27 09:05:10;;;;;;;2.42;1.00;;;;;;;7.11;91.80;100736.38;4978118;28;20046;-52
2021/03/27 09:07:58;;;;;;;3.63;0.88;;;;;;;7.01;92.62;100741.91;4974954;28;20123;-50
2021/03/27 09:10:49;;;;;;;1.40;0.90;;;;;;;7.11;92.80;100742.31;4982468;28;20046;-51
2021/03/27 09:13:38;;;;;;;1.08;0.98;;;;;;;6.98;92.43;100754.50;4978081;28;20057;-51
2021/03/27 09:16:36;;;;;;;1.33;0.77;;;;;;;6.93;93.38;100764.50;4966570;28;20050;-52
2021/03/27 09:19:36;;;;;;;2.70;0.90;;;;;;;6.87;93.74;100769.34;4983741;28;20050;-50
2021/03/27 09:22:12;;;;;;;1.63;0.80;;;;;;;7.12;93.89;100789.94;4974506;28;20051;-49
2021/03/27 09:24:47;;;;;;;1.17;0.90;;;;;;;6.80;93.71;100790.25;4983786;28;20514;-52
2021/03/27 09:27:26;;;;;;;1.48;0.90;;;;;;;6.88;93.60;100791.44;4972941;28;20045;-51
2021/03/27 09:30:10;;;;;;;1.73;1.05;;;;;;;7.02;92.02;100794.56;4975729;28;20056;-51
2021/03/27 09:32:55;;;;;;;3.40;1.40;;;;;;;6.84;94.01;100798.09;4978318;28;20496;-51
2021/03/27 09:35:30;;;;;;;2.40;1.27;;;;;;;6.88;93.56;100799.94;4976726;28;20137;-48
2021/03/27 09:38:15;;;;;;;1.50;1.27;;;;;;;6.92;93.40;100797.53;4971133;28;20051;-52
2021/03/27 09:41:01;;;;;;;1.50;1.25;;;;;;;7.20;92.14;100799.53;4973679;28;21068;-53
2021/03/27 09:44:20;;;;;;;1.63;1.52;;;;;;;7.30;93.31;100814.38;4975695;28;20054;-50
2021/03/27 09:47:23;;;;;;;2.22;1.00;;;;;;;7.45;90.63;100812.47;4919987;29;20078;-52
2021/03/27 09:49:52;;;;;;;1.85;1.55;;;;;;;7.83;91.75;100811.44;4876319;29;20070;-50
2021/03/27 09:52:21;;;;;;;2.00;1.45;;;;;;;7.95;92.51;100826.34;4969137;28;20057;-51
2021/03/27 09:55:36;;;;;;;1.63;0.93;;;;;;;8.31;88.12;100819.16;4982319;28;20118;-50
2021/03/27 09:58:25;;;;;;;1.35;1.25;;;;;;;8.46;87.21;100830.78;4982758;28;20493;-47
2021/03/27 10:01:04;;;;;;;1.30;1.08;;;;;;;8.60;87.30;100832.19;4981356;28;20849;-52
2021/03/27 10:03:48;;;;;;;0.95;0.93;;;;;;;8.56;85.59;100832.88;4983179;28;20047;-53
2021/03/27 10:06:48;;;;;;;1.55;1.10;;;;;;;8.70;85.12;100833.38;4976290;28;20636;-51
2021/03/27 10:09:46;;;;;;;1.25;1.10;;;;;;;8.36;85.93;100848.31;4974073;28;20045;-52
2021/03/27 10:13:14;;;;;;;3.60;1.50;;;;;;;8.55;85.33;100859.19;4977962;28;20050;-54
2021/03/27 10:15:56;;;;;;;1.65;1.55;;;;;;;8.39;85.52;100861.19;4933124;28;20046;-53
2021/03/27 10:18:57;;;;;;;1.55;1.40;;;;;;;8.83;84.17;100869.59;4978256;28;20562;-48
2021/03/27 10:21:30;;;;;;;2.38;1.98;;;;;;;8.54;85.97;100875.31;4978944;28;20054;-53
2021/03/27 10:24:07;;;;;;;2.55;1.95;;;;;;;8.95;83.34;100868.28;5004371;23;20157;-48
2021/03/27 10:26:43;;;;;;;2.92;2.30;;;;;;;9.95;80.11;100871.63;4997687;28;20054;-48
2021/03/27 10:29:38;;;;;;;3.88;2.22;;;;;;;10.48;75.26;100881.75;4990542;28;20387;-46
2021/03/27 10:32:23;;;;;;;3.10;2.22;;;;;;;9.74;77.24;100882.88;5001526;28;20420;-47
2021/03/27 10:35:17;;;;;;;2.90;2.70;;;;;;;9.40;79.17;100880.06;5007461;28;20076;-50
2021/03/27 10:37:48;;;;;;;4.63;3.08;;;;;;;9.74;78.47;100882.88;5004404;28;20050;-47
2021/03/27 10:40:33;;;;;;;5.13;2.95;;;;;;;10.62;74.90;100877.03;5009033;28;20679;-48
2021/03/27 10:43:29;;;;;;;3.42;3.13;;;;;;;12.67;67.66;100882.06;5002236;28;20133;-45
2021/03/27 10:46:04;;;;;;;3.65;3.00;;;;;;;15.06;60.22;100890.94;4975490;28;20439;-48
2021/03/27 10:49:01;;;;;;;4.88;2.67;;;;;;;17.42;52.48;100906.16;5007666;28;20033;-49
2021/03/27 10:51:36;;;;;;;;;;;;;;;16.53;52.35;100905.88;5009030;28;20161;-52
2021/03/27 10:54:30;;;;;;;3.38;3.08;;;;;;;14.48;52.15;100883.41;5011855;28;19922;-47
2021/03/27 10:57:21;;;;;;;5.03;3.50;;;;;;;13.78;56.94;100892.66;5011797;28;20069;-44
2021/03/27 11:00:25;;;;;;;5.88;3.50;;;;;;;13.34;57.08;100885.94;5010453;28;20045;-48
2021/03/27 11:03:22;;;;;;;4.72;4.38;;;;;;;14.41;55.14;100890.13;5005016;28;20045;-50
2021/03/27 11:05:58;;;;;;;3.88;3.58;;;;;;;15.45;50.68;100891.34;5006788;28;20054;-47
2021/03/27 11:08:47;;;;;;;4.50;4.10;;;;;;;15.54;48.96;100900.88;5011421;28;20049;-50
2021/03/27 11:11:41;;;;;;;6.28;3.33;;;;;;;12.05;62.72;100956.88;5011055;28;20041;-48
2021/03/27 11:14:45;;;;;;;5.00;2.95;;;;;;;7.63;79.72;100953.38;5005110;28;20053;-52
2021/03/27 11:17:39;;;;;;;6.70;4.05;;;;;;;7.13;86.92;100925.75;5014149;28;20037;-49
2021/03/27 11:20:38;;;;;;;6.50;4.30;;;;;;;6.75;87.91;100937.66;5014956;28;20046;-47
2021/03/27 11:23:30;;;;;;;8.52;4.72;;;;;;;7.22;88.84;100938.88;5013089;28;20489;-49
2021/03/27 11:26:18;;;;;;;8.57;5.00;;;;;;;8.39;88.54;100947.94;5004784;28;20133;-44
2021/03/27 11:28:49;;;;;;;5.80;4.28;;;;;;;9.50;82.38;100944.28;5008279;28;20038;-43
2021/03/27 11:31:24;;;;;;;7.95;4.32;;;;;;;9.82;82.64;100948.78;5007047;28;20057;-45
2021/03/27 11:34:07;;;;;;;7.20;4.80;;;;;;;11.68;79.70;100963.63;5014504;28;20061;-44
2021/03/27 11:36:50;;;;;;;5.53;4.35;;;;;;;14.69;65.75;100962.69;5008564;28;20048;-47
2021/03/27 11:39:38;;;;;;;6.63;3.47;;;;;;;17.08;60.35;100969.94;5007696;28;21285;-44
2021/03/27 11:42:31;;;;;;;3.58;3.28;;;;;;;16.71;56.11;100967.16;5002594;28;20050;-46
2021/03/27 11:45:07;;;;;;;4.18;3.70;;;;;;;19.05;49.62;100972.50;5002173;28;20046;-48
2021/03/27 11:47:47;;;;;;;5.05;3.92;;;;;;;19.47;45.70;100976.56;4998947;28;20057;-49
2021/03/27 11:50:16;;;;;;;5.78;3.92;;;;;;;20.07;45.34;100979.63;4998370;28;20050;-43
2021/03/27 11:53:05;;;;;;;4.10;3.70;;;;;;;22.29;45.32;100968.03;5005700;28;20472;-43
2021/03/27 11:55:47;;;;;;;6.07;3.83;;;;;;;21.59;45.46;100977.88;5013834;28;20510;-43
2021/03/27 11:58:30;;;;;;;4.22;3.50;;;;;;;22.29;36.87;100987.16;5008990;28;20099;-47
2021/03/27 12:01:06;;;;;;;4.60;4.10;;;;;;;20.77;39.18;100972.84;5013473;28;20053;-45
2021/03/27 12:03:53;;;;;;;6.15;4.30;;;;;;;20.80;38.19;100971.97;5010893;28;20041;-42
2021/03/27 12:06:25;;;;;;;6.15;3.97;;;;;;;21.20;38.56;100969.69;4997236;28;20045;-47
2021/03/27 12:09:14;;;;;;;3.35;2.97;;;;;;;21.07;36.48;100976.81;5000947;28;20057;-50
2021/03/27 12:12:04;;;;;;;3.92;2.88;;;;;;;20.77;35.74;100987.63;5002695;28;20057;-49
2021/03/27 12:14:52;;;;;;;3.03;2.78;;;;;;;17.65;38.30;100957.97;4999322;28;20039;-47
2021/03/27 12:17:29;;;;;;;2.90;2.60;;;;;;;15.65;39.14;100948.31;5005824;28;20037;-47
2021/03/27 12:20:24;;;;;;;3.70;2.42;;;;;;;15.12;42.62;100956.38;5010139;28;20488;-45
2021/03/27 12:23:28;;;;;;;5.43;3.13;;;;;;;15.18;42.94;100951.25;5008555;28;20050;-48
2021/03/27 12:26:12;;;;;;;4.88;3.05;;;;;;;14.49;42.77;100957.28;5005822;28;20069;-49
2021/03/27 12:29:11;;;;;;;4.72;2.55;;;;;;;13.19;44.85;100949.91;5009408;28;20100;-44
2021/03/27 12:31:45;;;;;;;3.97;2.20;;;;;;;12.84;45.82;100951.78;5005578;28;20053;-46
2021/03/27 12:34:36;;;;;;;4.45;2.47;;;;;;;14.62;40.02;100954.03;5001561;28;20049;-49
2021/03/27 12:37:17;;;;;;;3.10;1.95;;;;;;;15.19;40.46;100950.41;5012029;28;20042;-45
2021/03/27 12:40:05;;;;;;;2.80;1.85;;;;;;;15.71;38.67;100955.25;5010170;28;20041;-45
2021/03/27 12:42:44;;;;;;;2.70;2.10;;;;;;;15.52;37.57;100955.03;5009995;28;20076;-44
2021/03/27 12:45:19;;;;;;;5.35;2.25;;;;;;;15.33;40.86;100960.03;5013383;28;20044;-49
2021/03/27 12:48:20;;;;;;;2.47;1.77;;;;;;;15.18;40.64;100966.75;5010460;28;20500;-46
2021/03/27 12:51:06;;;;;;;2.67;1.70;;;;;;;15.50;38.97;100955.91;4989611;28;20042;-46